Time;durP1;ratioP1;P1;durP2;ratioP2;P2;SDS_P1;SDS_P2;PMS_P1;PMS_P2;Temp;Humidity;BMP_temperature;BMP_pressure;BME280_temperature;BME280_humidity;BME280_pressure;Samples;Min_cycle;Max_cycle;Signal;HPM_P1;HPM_P2
2022/12/21 00:01:44;;;;;;;4.67;3.73;;;;;;;12.70;53.68;97313.50;5054464;28;20302;-70
2022/12/21 00:04:10;;;;;;;9.20;3.60;;;;;;;12.60;53.89;97320.72;5058708;28;20210;-70
2022/12/21 00:06:36;;;;;;;4.50;3.43;;;;;;;12.68;53.92;97320.72;5054142;28;20187;-70
2022/12/21 00:09:04;;;;;;;8.13;4.13;;;;;;;12.73;53.86;97313.16;5053881;28;20595;-70
2022/12/21 00:11:31;;;;;;;6.67;2.97;;;;;;;12.77;53.66;97313.69;5057610;28;20844;-70
2022/12/21 00:13:58;;;;;;;4.30;3.27;;;;;;;12.82;53.76;97310.56;5054343;28;20901;-70
2022/12/21 00:16:26;;;;;;;3.83;2.93;;;;;;;12.85;53.52;97311.03;5052493;28;20428;-71
2022/12/21 00:18:51;;;;;;;5.20;3.27;;;;;;;12.79;54.07;97306.41;5054047;28;20421;-70
2022/12/21 00:21:23;;;;;;;4.07;3.67;;;;;;;12.82;54.24;97316.63;5060532;28;20437;-69
2022/12/21 00:23:50;;;;;;;4.60;3.53;;;;;;;12.89;54.22;97314.16;5054106;28;20674;-71
2022/12/21 00:26:22;;;;;;;7.50;3.40;;;;;;;12.81;54.52;97308.91;5053861;28;20445;-70
2022/12/21 00:28:49;;;;;;;5.17;3.10;;;;;;;12.86;55.13;97306.59;5053753;28;20418;-69
2022/12/21 00:31:21;;;;;;;5.60;3.60;;;;;;;12.85;55.08;97302.34;5053413;28;20472;-70
2022/12/21 00:33:46;;;;;;;6.40;3.13;;;;;;;12.86;55.39;97314.47;5053580;28;20841;-69
2022/12/21 00:36:14;;;;;;;6.57;3.67;;;;;;;12.87;55.01;97316.13;5054601;28;20524;-69
2022/12/21 00:38:40;;;;;;;4.40;3.10;;;;;;;12.87;55.49;97309.06;5049939;28;20576;-70
2022/12/21 00:41:08;;;;;;;5.00;3.07;;;;;;;12.81;55.51;97306.28;5056428;28;20481;-69
2022/12/21 00:43:35;;;;;;;4.17;3.30;;;;;;;12.77;55.72;97315.47;5052246;28;20244;-71
2022/12/21 00:46:01;;;;;;;4.63;3.30;;;;;;;12.81;55.92;97308.91;5035492;28;20429;-71
2022/12/21 00:48:30;;;;;;;3.50;2.70;;;;;;;12.83;55.64;97313.00;5052756;28;20429;-71
2022/12/21 00:51:04;;;;;;;5.30;2.67;;;;;;;12.78;55.76;97301.34;5050782;28;20215;-72
2022/12/21 00:53:29;;;;;;;4.90;2.83;;;;;;;12.80;55.59;97307.25;5052888;28;20429;-71
2022/12/21 00:55:56;;;;;;;5.47;2.50;;;;;;;12.88;55.72;97299.34;5053164;28;20429;-71
2022/12/21 00:58:23;;;;;;;3.00;2.70;;;;;;;12.92;55.40;97305.94;5052645;28;20277;-70
2022/12/21 01:00:48;;;;;;;4.40;2.50;;;;;;;12.95;55.12;97305.63;5053189;28;20841;-72
2022/12/21 01:03:14;;;;;;;5.27;3.53;;;;;;;12.88;55.11;97305.47;5052058;28;20433;-70
2022/12/21 01:05:39;;;;;;;4.10;3.20;;;;;;;12.88;54.90;97299.34;5054197;28;20340;-70
2022/12/21 01:08:04;;;;;;;3.70;2.80;;;;;;;12.91;55.38;97309.56;5056712;28;20658;-71
2022/12/21 01:10:30;;;;;;;5.00;3.03;;;;;;;12.81;55.45;97314.16;5056541;28;20690;-70
2022/12/21 01:12:57;;;;;;;5.03;3.00;;;;;;;12.89;55.14;97301.00;5052409;28;20501;-71
2022/12/21 01:15:22;;;;;;;9.50;3.47;;;;;;;12.83;55.30;97313.00;5052972;28;20195;-70
2022/12/21 01:17:48;;;;;;;3.20;2.90;;;;;;;12.89;55.06;97307.09;5052730;28;20800;-70
2022/12/21 01:20:13;;;;;;;3.20;2.90;;;;;;;12.80;55.58;97302.00;5052383;28;20209;-70
2022/12/21 01:22:39;;;;;;;3.40;2.73;;;;;;;12.79;55.75;97305.63;5052955;28;20191;-69
2022/12/21 01:25:05;;;;;;;3.43;2.90;;;;;;;12.81;55.52;97306.28;5052959;28;20272;-69
2022/12/21 01:27:30;;;;;;;4.03;2.90;;;;;;;12.79;55.43;97306.41;5045064;28;20232;-71
2022/12/21 01:29:55;;;;;;;5.93;3.33;;;;;;;12.74;56.15;97314.00;5055098;28;20221;-70
2022/12/21 01:32:21;;;;;;;6.23;3.23;;;;;;;12.70;55.87;97313.50;5052727;28;20228;-70
2022/12/21 01:34:46;;;;;;;4.77;2.80;;;;;;;12.73;56.06;97305.25;5052110;28;20186;-70
2022/12/21 01:37:12;;;;;;;8.47;3.00;;;;;;;12.71;56.44;97309.91;5053093;28;20847;-71
2022/12/21 01:39:37;;;;;;;6.13;3.13;;;;;;;12.78;56.26;97312.69;5057332;28;20788;-71
2022/12/21 01:42:03;;;;;;;4.13;3.10;;;;;;;12.70;57.14;97315.28;5056581;28;20287;-70
2022/12/21 01:44:51;;;;;;;5.73;3.20;;;;;;;12.75;56.91;97305.94;5051542;28;20222;-70
2022/12/21 01:47:20;;;;;;;4.77;2.93;;;;;;;12.65;57.71;97310.53;5065287;28;20561;-71
2022/12/21 01:49:52;;;;;;;5.13;3.23;;;;;;;12.75;57.39;97302.50;5051140;28;20450;-69
2022/12/21 01:52:17;;;;;;;4.57;3.27;;;;;;;12.78;57.62;97301.34;5048988;28;20429;-69
2022/12/21 01:54:51;;;;;;;3.00;2.57;;;;;;;12.81;57.68;97290.50;5067752;28;20418;-70
2022/12/21 01:57:16;;;;;;;5.50;3.20;;;;;;;12.74;57.81;97292.97;5046824;28;20215;-71
2022/12/21 01:59:54;;;;;;;3.87;2.63;;;;;;;12.67;58.33;97291.94;5050520;28;20473;-71
2022/12/21 02:02:23;;;;;;;5.53;3.40;;;;;;;12.72;58.10;97293.13;5045718;28;20183;-70
2022/12/21 02:04:50;;;;;;;5.97;3.00;;;;;;;12.78;58.21;97289.03;5051664;28;20468;-71
2022/12/21 02:07:15;;;;;;;5.73;2.90;;;;;;;12.81;58.67;97290.50;5059403;28;20519;-70
2022/12/21 02:09:42;;;;;;;3.20;2.90;;;;;;;12.77;58.90;97283.91;5069561;28;20564;-71
2022/12/21 02:12:09;;;;;;;3.50;2.80;;;;;;;12.63;59.13;97288.84;5050456;28;20190;-72
2022/12/21 02:14:38;;;;;;;4.13;2.80;;;;;;;12.73;59.21;97284.22;5066801;28;20777;-70
2022/12/21 02:17:18;;;;;;;4.63;2.87;;;;;;;12.70;59.38;97287.22;5053232;28;20800;-71
2022/12/21 02:20:05;;;;;;;3.80;2.70;;;;;;;12.75;59.43;97274.38;5051027;28;20522;-70
2022/12/21 02:22:39;;;;;;;5.80;3.57;;;;;;;12.84;59.17;97277.03;5051624;28;20398;-70
2022/12/21 02:25:26;;;;;;;3.40;2.93;;;;;;;12.79;59.87;97279.31;5047870;28;20465;-71
2022/12/21 02:28:04;;;;;;;5.63;2.73;;;;;;;12.73;60.39;97278.97;5051287;28;20418;-71
2022/12/21 02:30:48;;;;;;;4.07;2.70;;;;;;;12.76;60.47;97280.47;5051084;28;20490;-70
2022/12/21 02:33:31;;;;;;;4.70;2.90;;;;;;;12.73;60.89;97286.84;5050595;28;20438;-70
2022/12/21 02:36:23;;;;;;;5.93;2.43;;;;;;;12.81;60.93;97278.16;5052476;28;20447;-71
2022/12/21 02:38:59;;;;;;;5.90;3.00;;;;;;;12.89;60.70;97269.44;5044277;28;20430;-70
2022/12/21 02:41:35;;;;;;;4.87;2.80;;;;;;;12.83;60.96;97270.94;5051303;28;20445;-70
2022/12/21 02:44:13;;;;;;;4.87;2.90;;;;;;;12.69;61.24;97280.31;5065908;28;20461;-70
2022/12/21 02:47:09;;;;;;;3.37;2.67;;;;;;;12.79;61.15;97285.38;5049694;28;20471;-70
2022/12/21 02:50:02;;;;;;;4.00;2.90;;;;;;;12.88;60.93;97278.31;5025445;28;20458;-70
2022/12/21 02:52:41;;;;;;;4.93;3.10;;;;;;;12.90;61.36;97277.19;5050358;28;20416;-70
2022/12/21 02:55:10;;;;;;;4.50;2.77;;;;;;;12.84;61.69;97275.19;5050669;28;20425;-70
2022/12/21 02:57:37;;;;;;;3.93;2.83;;;;;;;12.79;61.76;97274.06;5050712;28;20473;-71
2022/12/21 03:00:07;;;;;;;4.90;2.63;;;;;;;12.77;61.91;97262.88;5059203;28;20519;-70
2022/12/21 03:06:02;;;;;;;6.00;3.20;;;;;;;12.81;62.08;97261.56;5047270;28;20454;-71
2022/12/21 03:08:38;;;;;;;3.40;2.60;;;;;;;12.79;61.91;97268.78;5050099;28;20422;-70
2022/12/21 03:11:06;;;;;;;3.07;2.77;;;;;;;12.81;61.63;97262.38;5038496;28;20832;-70
2022/12/21 03:13:43;;;;;;;3.67;2.73;;;;;;;12.87;61.68;97274.03;5049451;28;20923;-71
2022/12/21 03:16:29;;;;;;;3.10;2.80;;;;;;;12.73;62.16;97273.72;5069350;28;20855;-71
2022/12/21 03:19:19;;;;;;;3.13;2.60;;;;;;;12.65;62.62;97271.09;5050594;28;20434;-71
2022/12/21 03:21:47;;;;;;;3.40;2.80;;;;;;;12.73;62.37;97265.81;5044606;28;20425;-70
2022/12/21 03:24:22;;;;;;;3.80;2.70;;;;;;;12.69;62.73;97275.03;5052390;28;20477;-70
2022/12/21 03:27:25;;;;;;;2.80;2.60;;;;;;;12.73;62.42;97272.91;5065728;28;20428;-71
2022/12/21 03:29:59;;;;;;;6.60;3.17;;;;;;;12.70;62.37;97268.81;5015027;28;20825;-70
2022/12/21 03:32:31;;;;;;;3.83;2.90;;;;;;;12.64;62.75;97269.44;5053104;28;20478;-71
2022/12/21 03:34:57;;;;;;;9.63;3.10;;;;;;;12.65;62.84;97273.72;5051479;28;20440;-71
2022/12/21 03:37:35;;;;;;;3.83;3.00;;;;;;;12.68;62.46;97273.41;5050716;28;20426;-71
2022/12/21 03:40:15;;;;;;;4.00;2.77;;;;;;;12.68;62.75;97268.13;5048198;28;20830;-69
2022/12/21 03:42:46;;;;;;;3.40;2.97;;;;;;;12.72;62.72;97266.84;5046490;28;20486;-70
2022/12/21 03:45:17;;;;;;;5.60;3.00;;;;;;;12.70;62.75;97263.53;5041847;28;20468;-70
2022/12/21 03:47:56;;;;;;;5.00;3.03;;;;;;;12.68;63.04;97262.03;5050072;28;20421;-72
2022/12/21 03:50:24;;;;;;;5.13;2.60;;;;;;;12.77;63.05;97258.44;5065197;28;20437;-70
2022/12/21 03:53:04;;;;;;;3.87;2.53;;;;;;;12.69;63.08;97266.31;5049118;28;20515;-70
2022/12/21 03:55:33;;;;;;;3.63;2.90;;;;;;;12.74;62.99;97259.56;5048803;28;20786;-70
2022/12/21 03:57:59;;;;;;;3.43;3.03;;;;;;;12.63;63.38;97254.66;5048220;28;20461;-70
2022/12/21 04:00:26;;;;;;;2.97;2.53;;;;;;;12.62;63.75;97249.56;5048410;28;20546;-70
2022/12/21 04:03:10;;;;;;;5.47;3.30;;;;;;;12.71;63.46;97245.94;5041601;28;20421;-70
2022/12/21 04:05:40;;;;;;;4.33;2.90;;;;;;;12.68;63.45;97246.25;5044129;28;20643;-71
2022/12/21 04:08:05;;;;;;;3.23;2.60;;;;;;;12.70;63.78;97247.75;5048636;28;20433;-70
2022/12/21 04:10:31;;;;;;;4.37;2.93;;;;;;;12.65;63.95;97242.16;5051851;28;20449;-70
2022/12/21 04:12:56;;;;;;;4.57;2.70;;;;;;;12.64;63.93;97243.16;5050620;28;20186;-70
2022/12/21 04:15:25;;;;;;;3.20;2.60;;;;;;;12.58;64.49;97251.72;5051131;28;20211;-70
2022/12/21 04:17:52;;;;;;;2.87;2.57;;;;;;;12.58;64.24;97242.00;5049400;28;20674;-70
2022/12/21 04:20:20;;;;;;;4.77;2.60;;;;;;;12.62;64.14;97242.50;5055605;28;20448;-70
2022/12/21 04:28:29;;;;;;;6.67;3.20;;;;;;;12.51;64.93;97241.03;5056741;28;20425;-70
2022/12/21 04:30:55;;;;;;;3.43;2.57;;;;;;;12.58;64.99;97235.94;5053759;28;20444;-71
2022/12/21 04:33:22;;;;;;;4.67;2.60;;;;;;;12.64;64.69;97229.19;5057991;28;20438;-70
2022/12/21 04:38:35;;;;;;;5.00;2.90;;;;;;;12.62;65.02;97231.97;5052658;28;20492;-71
2022/12/21 04:41:00;;;;;;;3.93;2.90;;;;;;;12.69;65.24;97240.84;5063464;28;20452;-71
2022/12/21 04:43:26;;;;;;;4.00;2.90;;;;;;;12.61;64.95;97230.31;5059227;28;20429;-71
2022/12/21 04:46:02;;;;;;;6.53;2.60;;;;;;;12.62;65.30;97234.59;5063337;28;20286;-71
2022/12/21 04:48:28;;;;;;;3.53;2.53;;;;;;;12.52;65.64;97236.56;5057078;28;20653;-70
2022/12/21 04:50:54;;;;;;;6.10;2.60;;;;;;;12.70;65.17;97237.25;5061700;28;20448;-70
2022/12/21 04:53:19;;;;;;;3.13;2.57;;;;;;;12.73;65.26;97228.19;5060890;28;20275;-70
2022/12/21 04:55:47;;;;;;;3.50;2.30;;;;;;;12.81;65.14;97224.75;5064606;28;20281;-70
2022/12/21 04:58:13;;;;;;;4.07;2.50;;;;;;;12.87;65.29;97221.44;5064623;28;20207;-70
2022/12/21 05:00:38;;;;;;;4.70;2.40;;;;;;;12.72;65.19;97232.66;5064907;28;20498;-70
2022/12/21 05:03:04;;;;;;;4.20;2.50;;;;;;;12.77;65.63;97231.31;5067576;28;20258;-70
2022/12/21 05:05:30;;;;;;;5.40;2.10;;;;;;;12.80;65.39;97228.34;5065878;28;20210;-70
2022/12/21 05:07:55;;;;;;;3.60;2.13;;;;;;;12.80;65.27;97228.34;5064398;28;20191;-70
2022/12/21 05:10:21;;;;;;;3.87;2.23;;;;;;;12.71;65.60;97225.75;5065081;28;20820;-70
2022/12/21 05:12:46;;;;;;;3.07;2.60;;;;;;;12.78;65.37;97225.06;5064566;28;20186;-70
2022/12/21 05:15:13;;;;;;;4.60;2.30;;;;;;;12.68;65.93;97226.06;5062334;28;20183;-71
2022/12/21 05:17:39;;;;;;;4.40;2.10;;;;;;;12.81;65.67;97227.38;5060622;28;20268;-71
2022/12/21 05:20:05;;;;;;;5.37;2.40;;;;;;;12.86;65.32;97228.53;5067527;28;20825;-70
2022/12/21 05:22:31;;;;;;;4.20;2.57;;;;;;;12.79;65.61;97230.16;5048736;28;20508;-71
2022/12/21 05:24:56;;;;;;;3.97;2.50;;;;;;;12.74;65.80;97233.28;5059639;28;20556;-70
2022/12/21 05:27:22;;;;;;;5.87;2.60;;;;;;;12.73;65.82;97229.00;5053861;28;20183;-69
2022/12/21 05:29:47;;;;;;;3.60;2.67;;;;;;;12.80;65.67;97228.34;5063958;28;20309;-70
2022/12/21 05:32:12;;;;;;;6.63;2.40;;;;;;;12.70;66.12;97229.34;5064786;28;20218;-70
2022/12/21 05:34:38;;;;;;;3.90;2.33;;;;;;;12.73;66.21;97223.75;5064538;28;20179;-71
2022/12/21 05:37:03;;;;;;;2.80;2.57;;;;;;;12.79;65.91;97226.72;5066780;28;20211;-71
2022/12/21 05:39:29;;;;;;;5.90;2.50;;;;;;;12.77;65.98;97232.16;5065126;28;20238;-70
2022/12/21 05:41:54;;;;;;;2.97;2.03;;;;;;;12.72;66.16;97232.66;5061586;28;20273;-70
2022/12/21 05:44:20;;;;;;;5.87;2.60;;;;;;;12.75;65.74;97224.41;5062875;28;20256;-70
2022/12/21 05:46:45;;;;;;;5.83;2.30;;;;;;;12.73;66.40;97223.75;5064027;28;20213;-70
2022/12/21 05:49:11;;;;;;;2.47;2.27;;;;;;;12.83;65.78;97228.84;5062737;28;20328;-70
2022/12/21 05:51:36;;;;;;;2.77;2.23;;;;;;;12.83;65.90;97217.50;5057552;28;20277;-70
2022/12/21 05:54:02;;;;;;;3.70;2.33;;;;;;;12.88;65.93;97215.19;5062419;28;20182;-70
2022/12/21 05:56:27;;;;;;;3.10;2.47;;;;;;;12.86;66.07;97222.41;5060074;28;20178;-72
2022/12/21 05:58:53;;;;;;;8.90;2.47;;;;;;;12.84;65.93;97219.97;5066678;28;20197;-71
2022/12/21 06:01:18;;;;;;;3.10;1.90;;;;;;;12.87;66.33;97214.38;5062601;28;20674;-71
2022/12/21 06:03:44;;;;;;;3.13;2.00;;;;;;;12.77;66.80;97208.47;5068096;28;20182;-70
2022/12/21 06:06:14;;;;;;;5.63;2.93;;;;;;;12.94;66.49;97216.31;5053759;28;20642;-71
2022/12/21 06:08:40;;;;;;;3.33;2.63;;;;;;;12.89;66.48;97216.84;5068233;28;20265;-69
2022/12/21 06:11:11;;;;;;;8.97;2.30;;;;;;;12.89;66.38;97222.09;5065004;28;20524;-70
2022/12/21 06:13:37;;;;;;;3.73;2.07;;;;;;;12.88;66.63;97212.56;5053166;28;20680;-71
2022/12/21 06:16:07;;;;;;;8.63;2.60;;;;;;;12.90;66.60;97211.44;5063210;28;20449;-70
2022/12/21 06:18:33;;;;;;;6.57;2.80;;;;;;;12.88;66.55;97210.78;5061417;28;20190;-70
2022/12/21 06:20:58;;;;;;;6.40;2.40;;;;;;;12.90;66.63;97219.31;5067935;28;20440;-71
2022/12/21 06:23:24;;;;;;;5.20;1.90;;;;;;;12.90;66.73;97215.84;5051201;28;20183;-70
2022/12/21 06:25:57;;;;;;;4.20;2.27;;;;;;;12.82;67.25;97216.69;5067178;28;20206;-68
2022/12/21 06:28:24;;;;;;;2.67;2.07;;;;;;;12.92;66.85;97218.34;5062521;28;20606;-70
2022/12/21 06:30:50;;;;;;;5.27;2.97;;;;;;;12.89;66.86;97222.09;5063202;28;20514;-71
2022/12/21 06:33:16;;;;;;;5.23;2.40;;;;;;;12.91;67.08;97220.13;5065374;28;20440;-71
2022/12/21 06:35:42;;;;;;;3.23;2.13;;;;;;;12.88;67.52;97220.44;5054921;28;20780;-70
2022/12/21 06:38:07;;;;;;;5.80;2.73;;;;;;;12.91;67.31;97222.75;5057715;28;20440;-71
2022/12/21 06:40:33;;;;;;;4.20;2.27;;;;;;;12.79;67.82;97224.09;5063924;28;20226;-69
2022/12/21 06:42:58;;;;;;;5.07;2.30;;;;;;;12.83;67.44;97228.84;5058864;28;20261;-69
2022/12/21 06:45:23;;;;;;;8.33;2.80;;;;;;;12.89;67.72;97219.47;5056507;28;20214;-69
2022/12/21 06:47:53;;;;;;;4.77;2.20;;;;;;;12.90;67.40;97223.75;5056853;28;20213;-68
2022/12/21 06:50:19;;;;;;;4.33;2.33;;;;;;;12.84;67.89;97225.22;5068898;28;20746;-68
2022/12/21 06:52:44;;;;;;;7.63;2.63;;;;;;;12.81;67.78;97224.75;5065862;28;20433;-70
2022/12/21 06:55:09;;;;;;;5.17;2.47;;;;;;;12.87;67.60;97219.66;5060073;28;20270;-71
2022/12/21 06:57:35;;;;;;;5.17;2.70;;;;;;;12.93;67.58;97217.31;5064600;28;20187;-71
2022/12/21 07:00:01;;;;;;;6.43;2.40;;;;;;;12.93;67.73;97222.56;5060382;28;20207;-71
2022/12/21 07:02:26;;;;;;;3.97;2.10;;;;;;;12.94;67.29;97229.47;5068318;28;20233;-70
2022/12/21 07:04:52;;;;;;;5.27;2.80;;;;;;;12.92;67.70;97232.28;5062426;28;20202;-69
2022/12/21 07:07:18;;;;;;;3.87;2.17;;;;;;;12.94;67.63;97227.69;5061885;28;20649;-71
2022/12/21 07:09:43;;;;;;;3.43;2.53;;;;;;;12.96;67.43;97227.50;5064578;28;20440;-71
2022/12/21 07:12:09;;;;;;;4.50;2.70;;;;;;;12.92;67.55;97242.00;5059637;28;20905;-72
2022/12/21 07:14:35;;;;;;;2.83;2.30;;;;;;;12.99;67.18;97241.16;5065877;28;20193;-69
2022/12/21 07:17:01;;;;;;;5.67;2.93;;;;;;;12.95;67.53;97242.50;5063385;28;20571;-71
2022/12/21 07:19:26;;;;;;;7.60;3.23;;;;;;;12.97;67.42;97253.66;5068630;28;20209;-71
2022/12/21 07:21:52;;;;;;;9.03;3.23;;;;;;;12.90;67.68;97247.41;5058651;28;20190;-72
2022/12/21 07:24:17;;;;;;;10.10;3.10;;;;;;;12.96;67.56;97240.66;5068099;28;20259;-69
2022/12/21 07:26:43;;;;;;;5.50;3.10;;;;;;;12.95;67.71;97242.50;5063570;28;20182;-70
2022/12/21 07:29:09;;;;;;;3.37;2.60;;;;;;;12.96;67.49;97252.03;5059033;28;20714;-71
2022/12/21 07:31:35;;;;;;;10.17;3.20;;;;;;;12.99;67.33;97250.88;5058284;28;20231;-71
2022/12/21 07:34:00;;;;;;;3.97;3.07;;;;;;;13.03;67.30;97241.66;5053055;28;20449;-70
2022/12/21 07:36:25;;;;;;;3.60;2.80;;;;;;;12.96;67.53;97249.41;5060909;28;20209;-70
2022/12/21 07:38:52;;;;;;;4.00;2.90;;;;;;;12.94;67.60;97250.53;5059877;28;20215;-72
2022/12/21 07:41:18;;;;;;;5.77;2.83;;;;;;;12.97;67.79;97256.31;5045622;28;20219;-72
2022/12/21 07:43:44;;;;;;;6.47;2.80;;;;;;;12.97;67.69;97256.31;5049248;28;20501;-72
2022/12/21 07:46:09;;;;;;;5.20;2.90;;;;;;;12.95;67.96;97258.28;5040316;28;20199;-72
2022/12/21 07:48:35;;;;;;;11.03;3.40;;;;;;;12.89;67.93;97253.66;5048826;28;20788;-70
2022/12/21 07:51:02;;;;;;;7.10;3.17;;;;;;;12.97;67.37;97253.66;5059496;28;20205;-70
2022/12/21 07:53:27;;;;;;;5.17;2.87;;;;;;;12.92;67.96;97252.53;5053944;28;20190;-71
2022/12/21 07:55:57;;;;;;;6.60;2.80;;;;;;;12.89;68.37;97257.13;5056935;28;20504;-72
2022/12/21 07:58:23;;;;;;;7.30;2.60;;;;;;;12.88;67.82;97262.53;5055802;28;20183;-70
2022/12/21 08:00:49;;;;;;;4.07;3.03;;;;;;;12.92;67.84;97266.47;5057271;28;20532;-71
2022/12/21 08:03:14;;;;;;;3.80;3.10;;;;;;;12.96;68.01;97265.19;5061936;28;20186;-72
2022/12/21 08:05:39;;;;;;;3.80;2.50;;;;;;;12.93;68.06;97270.75;5055135;28;20209;-71
2022/12/21 08:08:05;;;;;;;6.83;2.80;;;;;;;12.90;68.47;97265.81;5059800;28;20187;-73
2022/12/21 08:10:31;;;;;;;4.23;2.90;;;;;;;12.94;67.86;97271.56;5056413;28;20692;-72
2022/12/21 08:12:56;;;;;;;5.87;3.10;;;;;;;12.89;68.13;97272.06;5053479;28;20593;-70
2022/12/21 08:15:21;;;;;;;4.70;2.53;;;;;;;12.90;67.95;97281.59;5061380;28;20200;-70
2022/12/21 08:17:48;;;;;;;11.97;3.23;;;;;;;12.79;68.20;97269.59;5055328;28;20215;-72
2022/12/21 08:20:14;;;;;;;5.47;2.77;;;;;;;12.74;68.80;97282.44;5065643;28;20214;-71
2022/12/21 08:22:40;;;;;;;4.50;2.70;;;;;;;12.79;68.47;97269.59;5059280;28;20421;-70
2022/12/21 08:25:05;;;;;;;3.10;2.47;;;;;;;12.82;68.29;97277.16;5065338;28;20207;-71
2022/12/21 08:27:31;;;;;;;9.73;3.10;;;;;;;12.78;68.25;97273.25;5060958;28;20946;-70
2022/12/21 08:29:56;;;;;;;3.37;2.80;;;;;;;12.85;68.04;97284.72;5060207;28;20293;-71
2022/12/21 08:32:21;;;;;;;5.73;2.53;;;;;;;12.82;68.24;97279.00;5064614;28;20228;-70
2022/12/21 08:34:47;;;;;;;7.03;3.13;;;;;;;12.81;68.17;97283.41;5055625;28;20266;-69
2022/12/21 08:37:13;;;;;;;4.17;2.53;;;;;;;12.77;68.49;97276.84;5059212;28;20234;-70
2022/12/21 08:39:39;;;;;;;13.33;3.13;;;;;;;12.57;68.85;97287.69;5062973;28;20210;-73
2022/12/21 08:42:04;;;;;;;8.03;2.93;;;;;;;12.74;68.11;97283.25;5062833;28;20527;-69
2022/12/21 08:44:30;;;;;;;8.40;3.40;;;;;;;12.81;67.84;97277.34;5054532;28;20202;-69
2022/12/21 08:46:55;;;;;;;6.07;3.00;;;;;;;12.72;68.08;97285.25;5064039;28;20210;-69
2022/12/21 08:49:21;;;;;;;3.73;2.60;;;;;;;12.78;67.91;97288.19;5064507;28;20268;-71
2022/12/21 08:51:46;;;;;;;10.53;3.30;;;;;;;12.81;67.48;97287.88;5070390;28;20626;-71
2022/12/21 08:54:11;;;;;;;4.20;3.00;;;;;;;12.72;68.25;97294.94;5060478;28;20195;-72
2022/12/21 08:56:37;;;;;;;6.03;3.13;;;;;;;12.66;68.08;97291.13;5057616;28;20229;-71
2022/12/21 08:59:05;;;;;;;5.00;3.00;;;;;;;12.78;68.13;97293.44;5069767;28;20279;-71
2022/12/21 09:01:31;;;;;;;7.37;3.40;;;;;;;12.64;68.45;97292.31;5060313;28;20276;-71
2022/12/21 09:03:56;;;;;;;5.40;2.93;;;;;;;12.68;68.40;97293.59;5052864;28;20426;-71
2022/12/21 09:06:21;;;;;;;6.73;3.33;;;;;;;12.65;68.23;97294.75;5056349;28;20433;-71
2022/12/21 09:08:47;;;;;;;5.33;2.60;;;;;;;12.72;67.98;97294.94;5065360;28;20224;-71
2022/12/21 09:11:14;;;;;;;5.00;3.20;;;;;;;12.77;68.09;97299.69;5054107;28;20207;-72
2022/12/21 09:13:40;;;;;;;4.83;2.80;;;;;;;12.66;67.99;97290.34;5058463;28;20187;-68
2022/12/21 09:16:13;;;;;;;3.83;2.63;;;;;;;12.79;67.70;97289.84;5064033;28;20424;-71
2022/12/21 09:18:38;;;;;;;3.13;2.40;;;;;;;12.86;67.48;97291.63;5054838;28;20193;-71
2022/12/21 09:21:04;;;;;;;3.50;2.47;;;;;;;12.86;67.86;97286.38;5064587;28;20453;-71
2022/12/21 09:23:29;;;;;;;4.80;2.73;;;;;;;12.79;67.72;97284.56;5063169;28;20236;-71
2022/12/21 09:25:54;;;;;;;2.80;2.40;;;;;;;12.77;67.81;97291.81;5066468;28;20260;-71
2022/12/21 09:28:21;;;;;;;5.73;3.23;;;;;;;12.79;68.14;97284.56;5059923;28;20209;-69
2022/12/21 09:30:46;;;;;;;6.30;2.93;;;;;;;12.69;67.86;97285.56;5061707;28;20218;-70
2022/12/21 09:33:12;;;;;;;5.63;3.40;;;;;;;12.68;68.11;97294.44;5060486;28;20430;-69
2022/12/21 09:35:38;;;;;;;3.57;2.37;;;;;;;12.66;68.19;97291.13;5058581;28;20179;-69
2022/12/21 09:38:03;;;;;;;6.93;3.13;;;;;;;12.72;67.79;97293.13;5061801;28;20641;-69
2022/12/21 09:40:30;;;;;;;4.07;3.20;;;;;;;12.68;67.88;97299.69;5060918;28;20451;-70
2022/12/21 09:43:20;;;;;;;6.00;2.80;;;;;;;12.79;67.53;97300.34;5062906;28;20723;-70
2022/12/21 09:46:03;;;;;;;3.33;3.03;;;;;;;12.82;67.77;97300.03;5061457;28;21047;-70
2022/12/21 09:48:39;;;;;;;5.30;2.97;;;;;;;12.83;67.51;97291.16;5065713;28;20470;-71
2022/12/21 09:51:14;;;;;;;5.60;2.73;;;;;;;12.80;67.83;97300.16;5079607;28;20443;-72
2022/12/21 09:53:46;;;;;;;5.57;3.33;;;;;;;12.94;67.49;97297.88;5079878;28;20442;-70
2022/12/21 09:56:16;;;;;;;5.00;3.53;;;;;;;12.96;67.24;97307.28;5050331;28;20982;-71
2022/12/21 09:58:43;;;;;;;12.60;3.60;;;;;;;12.99;67.18;97306.09;5059710;28;20439;-70
2022/12/21 10:01:16;;;;;;;8.93;3.40;;;;;;;13.01;66.85;97320.72;5061505;28;20468;-72
2022/12/21 10:03:51;;;;;;;18.47;3.20;;;;;;;12.96;67.01;97302.00;5067290;28;20766;-69
2022/12/21 10:06:41;;;;;;;9.20;3.40;;;;;;;13.03;67.09;97310.88;5056916;28;20563;-70
2022/12/21 10:09:35;;;;;;;3.80;2.87;;;;;;;13.05;66.97;97316.78;5065678;28;20423;-70
2022/12/21 10:12:09;;;;;;;3.70;2.67;;;;;;;12.97;66.51;97308.91;5056734;28;20457;-69
2022/12/21 10:14:57;;;;;;;3.50;2.50;;;;;;;13.12;66.70;97313.47;5058743;28;20428;-69
2022/12/21 10:17:23;;;;;;;5.23;2.43;;;;;;;13.15;66.75;97313.16;5065270;28;20441;-70
2022/12/21 10:20:26;;;;;;;6.93;2.90;;;;;;;13.06;66.58;97321.06;5056503;28;23075;-70
2022/12/21 10:23:16;;;;;;;12.63;3.30;;;;;;;13.23;66.14;97323.69;5053909;28;20187;-69
2022/12/21 10:25:47;;;;;;;6.13;3.53;;;;;;;13.29;66.46;97317.75;5048652;28;20472;-70
2022/12/21 10:28:22;;;;;;;4.47;3.23;;;;;;;13.30;66.20;97326.47;5059751;28;20460;-72
2022/12/21 10:31:00;;;;;;;5.40;3.10;;;;;;;13.05;66.02;97323.84;5058364;28;20449;-70
2022/12/21 10:33:25;;;;;;;5.03;3.13;;;;;;;13.27;65.89;97327.63;5062877;28;20437;-70
2022/12/21 10:35:53;;;;;;;4.30;3.10;;;;;;;13.09;66.23;97316.47;5054736;28;20440;-71
2022/12/21 10:38:19;;;;;;;5.97;3.00;;;;;;;13.18;66.09;97315.47;5050639;28;20269;-70
2022/12/21 10:40:51;;;;;;;5.10;3.60;;;;;;;13.23;65.88;97315.81;5057902;28;20437;-72
2022/12/21 10:43:16;;;;;;;11.00;3.60;;;;;;;13.11;66.31;97303.94;5066367;28;20217;-70
2022/12/21 10:45:42;;;;;;;6.27;3.10;;;;;;;13.20;66.14;97308.22;5069062;28;20451;-72
2022/12/21 10:48:07;;;;;;;4.50;2.83;;;;;;;13.37;65.86;97306.41;5064313;28;20183;-71
2022/12/21 10:50:36;;;;;;;4.00;2.97;;;;;;;13.77;65.83;97301.19;5068132;28;20576;-71
2022/12/21 10:53:23;;;;;;;5.20;3.20;;;;;;;14.16;64.81;97297.75;5062950;28;20187;-72
2022/12/21 10:55:48;;;;;;;4.67;2.80;;;;;;;14.52;63.75;97302.47;5055535;28;20470;-71
2022/12/21 10:58:19;;;;;;;4.57;2.97;;;;;;;15.19;62.19;97303.63;5050653;28;20425;-70
2022/12/21 11:00:56;;;;;;;4.73;2.70;;;;;;;15.87;59.21;97301.97;5078056;28;20213;-71
2022/12/21 11:03:34;;;;;;;6.73;3.00;;;;;;;15.84;57.69;97297.03;5072717;28;20522;-71
2022/12/21 11:06:10;;;;;;;4.13;2.70;;;;;;;15.91;57.37;97295.31;5058433;28;20556;-71
2022/12/21 11:08:43;;;;;;;3.67;2.70;;;;;;;15.76;57.54;97295.28;5063213;28;20412;-71
2022/12/21 11:11:26;;;;;;;5.00;2.80;;;;;;;15.82;57.04;97292.75;5064954;28;20459;-71
2022/12/21 11:14:17;;;;;;;4.60;2.80;;;;;;;15.70;57.06;97294.19;5064258;28;20832;-72
2022/12/21 11:16:44;;;;;;;4.43;3.07;;;;;;;16.10;56.95;97289.47;5059260;28;20429;-72
2022/12/21 11:19:21;;;;;;;5.70;3.17;;;;;;;16.57;55.35;97281.19;5059485;28;20447;-70
2022/12/21 11:21:50;;;;;;;3.50;2.80;;;;;;;17.00;54.49;97281.22;5063399;28;20474;-71
2022/12/21 11:24:26;;;;;;;4.63;2.93;;;;;;;16.77;54.03;97288.47;5064865;28;20934;-71
2022/12/21 11:26:54;;;;;;;3.20;2.60;;;;;;;16.65;54.33;97281.06;5059913;28;20512;-71
2022/12/21 11:29:24;;;;;;;3.10;2.80;;;;;;;16.03;55.28;97283.25;5048143;28;20429;-72
2022/12/21 11:31:51;;;;;;;3.53;3.10;;;;;;;15.76;56.42;97276.78;5061266;28;20531;-71
2022/12/21 11:34:37;;;;;;;4.47;2.87;;;;;;;15.67;57.23;97273.44;5060966;28;20449;-72
2022/12/21 11:37:06;;;;;;;3.20;2.90;;;;;;;15.74;57.37;97269.06;5055611;28;20960;-70
2022/12/21 11:39:32;;;;;;;5.10;2.90;;;;;;;15.80;57.02;97273.59;5046914;28;20848;-70
2022/12/21 11:41:57;;;;;;;5.10;3.10;;;;;;;16.38;56.38;97275.50;5062003;28;20428;-71
2022/12/21 11:44:29;;;;;;;3.90;3.17;;;;;;;16.89;55.41;97282.50;5062788;28;20242;-70
2022/12/21 11:47:15;;;;;;;5.87;3.10;;;;;;;17.40;53.88;97277.19;5058526;28;20189;-71
2022/12/21 11:49:56;;;;;;;2.87;2.67;;;;;;;17.53;53.25;97266.66;5069614;28;20440;-71
2022/12/21 11:52:37;;;;;;;4.50;3.03;;;;;;;17.49;53.13;97263.59;5067033;28;20778;-71
2022/12/21 11:55:29;;;;;;;3.00;2.60;;;;;;;17.47;52.90;97272.75;5063048;28;20475;-72
2022/12/21 11:58:26;;;;;;;4.10;2.40;;;;;;;17.13;53.35;97264.59;5028756;28;20429;-72